• Join FlightAware (Why Join?)
  • Login
  • US Flag 
06:49PM EDT


 

Airport Tracker/Info


-or-


 

Live Flight TrackerFlight Track Log ✈ UCA4838 ✈ 01-May-2013 ✈ KALB - KEWR

Flight Track Log - Related Links

Times and Time Zones

All times are in EDT time to prevent confusion due to time zone crossing. See the UCA4838 flight status page for this flight to view local times or setup timezone preferences in your user account.

Time Position Orientation Groundspeed Altitude Reporting Facility
EDT Latitude Longitude Course Direction KTS MPH feet Rate Location/Type
09:26AM 42.7297 -73.8081 208° Southwest 131 151 1,200  Level Boston Center
09:27AM 42.6836 -73.8381 206° Southwest 157 181 2,900 1,320 Climbing Boston Center
09:28AM 42.6456 -73.8683 210° Southwest 165 190 4,200 1,320 Climbing Boston Center
09:29AM 42.5994 -73.9039 210° Southwest 184 212 5,600 1,380 Climbing Boston Center
09:30AM 42.5614 -73.9311 208° Southwest 189 217 7,000 1,440 Climbing Boston Center
09:31AM 42.3271 -73.8792 208° Southwest  Level Estimated
09:31AM 42.5131 -73.9667 208° Southwest 183 211 8,500  Level Boston Center
09:32AM 42.4711 -73.9994 210° Southwest 195 224 9,500 720 Climbing Boston Center
09:33AM 42.4183 -74.0431 211° Southwest 203 234 10,000 360 Climbing Boston Center
09:33AM 42.4078 -74.0514 210° Southwest 207 238 10,000  Level Boston Center
09:34AM 42.3678 -74.0811 209° Southwest 220 253 10,000  Level Boston Center
09:35AM 42.3128 -74.1275 212° Southwest 231 266 10,000  Level Boston Center
09:36AM 42.2539 -74.1708 209° Southwest 237 273 10,000  Level Boston Center
09:37AM 42.1947 -74.2167 210° Southwest 243 280 10,000  Level Boston Center
09:38AM 42.1336 -74.2625 209° Southwest 248 285 10,000  Level Boston Center
09:39AM 42.0725 -74.3056 208° Southwest 248 285 10,000  Level Boston Center
09:40AM 42.0114 -74.3486 208° Southwest 248 285 10,000  Level Boston Center
09:41AM 41.9500 -74.3914 207° Southwest 248 285 10,000 -360 Level Boston Center
09:42AM 41.8825 -74.4422 209° Southwest 248 285 9,300 -780 Descending Boston Center
09:43AM 41.8150 -74.4875 207° Southwest 253 291 8,500 -780 Descending Boston Center
09:44AM 41.7475 -74.5297 205° Southwest 263 303 7,800 -720 Descending Boston Center
09:45AM 41.6806 -74.5442 189° South 263 303 7,100 -420 Descending Boston Center
09:46AM 41.6136 -74.5558 187° South 256 295 7,000 -180 Descending Boston Center
09:47AM 41.5406 -74.5675 187° South 256 295 6,800 -360 Descending Boston Center
09:49AM 41.4000 -74.6000 190° South 261 300 6,000 -300 Descending New York TRACON
09:50AM 41.3333 -74.6167 191° South 254 292 6,000  Level New York TRACON
09:51AM 41.2667 -74.6167 180° South 247 284 6,000  Level New York TRACON
09:52AM 41.2000 -74.6167 180° South 249 287 6,000  Level New York TRACON
09:53AM 41.1333 -74.6167 180° South 250 288 6,000  Level New York TRACON
09:54AM 41.0667 -74.6000 169° South 251 289 6,000  Level New York TRACON
09:55AM 41.0000 -74.6000 180° South 251 289 6,000  Level New York TRACON
09:56AM 40.9333 -74.6000 180° South 251 289 6,000  Level New York TRACON
09:57AM 40.8667 -74.6000 180° South 253 291 6,000  Level New York TRACON
09:58AM 40.8000 -74.5833 169° South 252 290 6,000  Level New York TRACON
09:59AM 40.7167 -74.5667 171° South 252 290 6,000 -60 Level New York TRACON
10:00AM 40.6667 -74.5167 143° Southeast 254 292 5,900 -660 Descending New York TRACON
10:01AM 40.6167 -74.4500 135° Southeast 255 293 4,800 -1,260 Descending New York TRACON
10:02AM 40.5833 -74.3833 123° Southeast 240 276 3,600 -960 Descending New York TRACON
10:03AM 40.5500 -74.3333 131° Southeast 219 252 3,000 -480 Descending New York TRACON
10:04AM 40.5500 -74.2667 90° East 169 194 2,800 -480 Descending New York TRACON
10:05AM 40.6000 -74.2167 37° Northeast 171 197 2,100 -780 Descending New York TRACON
10:06AM 40.6333 -74.2000 21° North 158 182 1,300 -960 Descending New York TRACON
10:07AM 40.6667 -74.1833 21° North 123 142 300 -1,020 Descending New York TRACON